Aviation Digital Data Service (ADDS)

Output produced by METARs form (0254 UTC 22 April 2019)
found at http://www.aviationweather.gov/metar/data/
 
Forecast for: WADD (BALI INTL , ID)
Text: TAF WADD 212300Z 2200/2300 11012KT 9999 SCT017
Forecast period: 0000 UTC 22 April 2019 to 0000 UTC 23 April 2019
Forecast type: FROM: standard forecast or significant change
Winds: from the ESE (110 degrees) at 14 MPH (12 knots; 6.2 m/s)
Visibility: 6 or more miles 10+ km)
Ceiling: at least 12,000 feet AGL
Clouds: scattered clouds at 1700 feet AGL
Weather: no significant weather forecast for this period
Text: TEMPO 2216/2218 VRB05KT
Forecast period: 1600 to 1800 UTC 22 April 2019
Forecast type: TEMPORARY: The following changes expected for less than half the time period
Winds: variable direction winds at 6 MPH (5 knots; 2.6 m/s)
Visibility: missing
Ceiling: unknown
Clouds: missing
Weather: no significant weather forecast for this period